Time;durP1;ratioP1;P1;durP2;ratioP2;P2;SDS_P1;SDS_P2;PMS_P1;PMS_P2;Temp;Humidity;BMP_temperature;BMP_pressure;BME280_temperature;BME280_humidity;BME280_pressure;Samples;Min_cycle;Max_cycle;Signal;HPM_P1;HPM_P2
2023/07/25 00:00:11;;;;;;;6.83;2.00;;;12.90;89.80;;;;;;5046623;28;20398;-70
2023/07/25 00:02:37;;;;;;;9.53;2.30;;;12.90;89.70;;;;;;5034555;28;20048;-70
2023/07/25 00:05:04;;;;;;;9.57;2.73;;;12.90;89.70;;;;;;5007974;28;20049;-70
2023/07/25 00:07:30;;;;;;;11.37;2.40;;;12.90;90.00;;;;;;5007155;28;20121;-70
2023/07/25 00:09:56;;;;;;;8.27;2.10;;;12.90;89.90;;;;;;4998063;28;20770;-70
2023/07/25 00:12:23;;;;;;;7.97;2.30;;;13.00;90.10;;;;;;5009474;28;20041;-70
2023/07/25 00:14:49;;;;;;;9.10;2.50;;;13.00;90.00;;;;;;5018691;28;20285;-70
2023/07/25 00:17:15;;;;;;;6.60;2.07;;;13.00;90.10;;;;;;4998358;28;20291;-70
2023/07/25 00:19:40;;;;;;;5.40;2.10;;;13.00;90.10;;;;;;5008461;28;20280;-70
2023/07/25 00:22:06;;;;;;;7.93;2.20;;;13.10;90.30;;;;;;5010073;28;20084;-70
2023/07/25 00:24:32;;;;;;;8.27;2.00;;;13.10;90.20;;;;;;5001360;28;20778;-70
2023/07/25 00:26:58;;;;;;;8.77;2.60;;;13.10;90.00;;;;;;4989068;28;20038;-70
2023/07/25 00:29:23;;;;;;;8.87;2.60;;;13.10;90.20;;;;;;4999683;28;20050;-70
2023/07/25 00:31:49;;;;;;;9.37;2.67;;;13.00;90.30;;;;;;4999059;28;20049;-70
2023/07/25 00:34:15;;;;;;;8.30;2.10;;;13.00;90.30;;;;;;5003823;28;20460;-70
2023/07/25 00:36:40;;;;;;;6.53;2.10;;;13.00;90.30;;;;;;5011010;28;20041;-70
2023/07/25 00:39:06;;;;;;;13.40;2.30;;;12.90;90.60;;;;;;5009473;28;20182;-70
2023/07/25 00:41:32;;;;;;;9.67;2.03;;;12.90;90.60;;;;;;5009912;28;20041;-70
2023/07/25 00:43:57;;;;;;;7.30;2.33;;;12.90;90.30;;;;;;5009748;28;20444;-70
2023/07/25 00:46:24;;;;;;;10.30;2.30;;;12.90;90.40;;;;;;4992398;28;20065;-70
2023/07/25 00:48:50;;;;;;;10.83;2.20;;;12.90;90.50;;;;;;4997117;28;20050;-70
2023/07/25 00:51:16;;;;;;;8.70;2.30;;;12.90;90.20;;;;;;5010053;28;20307;-70
2023/07/25 00:53:42;;;;;;;7.93;2.10;;;12.90;90.20;;;;;;5012871;28;20580;-70
2023/07/25 00:56:10;;;;;;;9.77;2.30;;;12.90;90.60;;;;;;5017991;28;20488;-70
2023/07/25 00:58:36;;;;;;;6.93;2.20;;;12.80;90.70;;;;;;5007599;28;20307;-70
2023/07/25 01:01:03;;;;;;;7.97;2.10;;;12.80;90.50;;;;;;5013710;28;20284;-70
2023/07/25 01:03:30;;;;;;;10.60;2.00;;;12.80;90.70;;;;;;5022444;28;20544;-70
2023/07/25 01:05:59;;;;;;;10.17;2.03;;;12.70;90.70;;;;;;5044475;28;20284;-70
2023/07/25 01:08:25;;;;;;;7.70;2.27;;;12.70;90.90;;;;;;5037974;28;20791;-70
2023/07/25 01:10:50;;;;;;;7.70;1.83;;;12.70;91.00;;;;;;5048506;28;20362;-70
2023/07/25 01:13:16;;;;;;;8.67;2.37;;;12.60;91.30;;;;;;5032468;28;20460;-70
2023/07/25 01:15:42;;;;;;;9.27;2.20;;;12.60;91.80;;;;;;5048947;28;20045;-70
2023/07/25 01:18:09;;;;;;;9.30;2.53;;;12.60;91.80;;;;;;5040281;28;20084;-70
2023/07/25 01:20:35;;;;;;;11.37;2.70;;;12.60;91.80;;;;;;5043138;28;20041;-70
2023/07/25 01:23:04;;;;;;;8.07;3.03;;;12.60;92.10;;;;;;5038048;28;20307;-70
2023/07/25 01:25:30;;;;;;;11.23;2.53;;;12.60;91.90;;;;;;5047196;28;20321;-70
2023/07/25 01:27:55;;;;;;;9.90;3.17;;;12.60;92.10;;;;;;5044816;28;20850;-70
2023/07/25 01:30:21;;;;;;;8.27;2.70;;;12.60;92.30;;;;;;5050879;28;20041;-70
2023/07/25 01:32:47;;;;;;;10.00;2.27;;;12.60;92.30;;;;;;5046919;28;20045;-70
2023/07/25 01:35:13;;;;;;;8.07;2.47;;;12.50;92.30;;;;;;5037355;28;20144;-70
2023/07/25 01:37:38;;;;;;;6.90;2.53;;;12.50;92.20;;;;;;5037150;28;20037;-70
2023/07/25 01:40:05;;;;;;;5.80;1.87;;;12.50;92.20;;;;;;5046766;28;20469;-70
2023/07/25 01:42:31;;;;;;;9.00;2.27;;;12.50;92.40;;;;;;5035618;28;20088;-70
2023/07/25 01:44:57;;;;;;;11.30;2.37;;;12.50;92.80;;;;;;5041732;28;20295;-70
2023/07/25 01:47:25;;;;;;;5.50;2.47;;;12.40;92.90;;;;;;5040494;28;20299;-70
2023/07/25 01:49:55;;;;;;;8.33;2.30;;;12.40;92.80;;;;;;5036351;28;20047;-70
2023/07/25 01:52:21;;;;;;;8.00;2.17;;;12.40;93.10;;;;;;5044149;28;20306;-70
2023/07/25 01:54:48;;;;;;;7.33;1.90;;;12.50;92.90;;;;;;5021176;28;20284;-70
2023/07/25 01:57:14;;;;;;;15.63;3.13;;;12.50;92.70;;;;;;5043226;28;20291;-70
2023/07/25 01:59:40;;;;;;;8.77;2.20;;;12.50;92.80;;;;;;5034896;28;20288;-70
2023/07/25 02:02:06;;;;;;;8.47;1.90;;;12.60;92.90;;;;;;5046528;28;20520;-70
2023/07/25 02:04:31;;;;;;;7.43;1.80;;;12.70;92.40;;;;;;5031717;28;20058;-70
2023/07/25 02:06:57;;;;;;;11.97;1.97;;;12.80;91.90;;;;;;5037465;28;20045;-70
2023/07/25 02:09:23;;;;;;;11.33;2.13;;;12.80;91.50;;;;;;5043766;28;20040;-70
2023/07/25 02:11:49;;;;;;;9.07;1.80;;;12.90;91.20;;;;;;5042153;28;20041;-70
2023/07/25 02:14:14;;;;;;;9.47;1.63;;;13.00;90.90;;;;;;5047405;28;20144;-70
2023/07/25 02:16:40;;;;;;;6.83;2.10;;;13.00;90.50;;;;;;5044706;28;20044;-70
2023/07/25 02:19:06;;;;;;;9.37;2.00;;;13.00;90.20;;;;;;5044322;28;20100;-70
2023/07/25 02:21:33;;;;;;;15.07;2.90;;;13.10;90.00;;;;;;5049140;28;20120;-70
2023/07/25 02:23:59;;;;;;;12.77;2.37;;;13.10;89.60;;;;;;5048766;28;20318;-70
2023/07/25 02:26:24;;;;;;;9.87;2.07;;;13.10;89.50;;;;;;5062118;28;20343;-70
2023/07/25 02:28:50;;;;;;;9.17;2.13;;;13.10;89.30;;;;;;5040822;28;20049;-70
2023/07/25 02:31:15;;;;;;;9.33;1.50;;;13.10;89.10;;;;;;5044899;28;20055;-70
2023/07/25 02:33:41;;;;;;;10.73;2.27;;;13.10;89.20;;;;;;5042163;28;20489;-70
2023/07/25 02:36:07;;;;;;;6.13;1.57;;;13.10;89.00;;;;;;5045226;28;20037;-70
2023/07/25 02:38:33;;;;;;;11.63;2.30;;;13.10;89.00;;;;;;5045569;28;20136;-70
2023/07/25 02:40:58;;;;;;;8.83;1.97;;;13.00;89.10;;;;;;5040380;28;20045;-70
2023/07/25 02:43:24;;;;;;;7.33;1.87;;;13.00;89.10;;;;;;5043018;28;20041;-70
2023/07/25 02:45:51;;;;;;;7.77;1.90;;;12.90;89.00;;;;;;5031654;28;20041;-70
2023/07/25 02:48:17;;;;;;;7.77;1.90;;;12.90;88.80;;;;;;5035195;28;20112;-70
2023/07/25 02:50:43;;;;;;;7.60;1.75;;;12.90;88.70;;;;;;5044236;28;20283;-70
2023/07/25 02:53:09;;;;;;;5.90;1.80;;;12.80;88.70;;;;;;5041499;28;20290;-70
2023/07/25 02:55:36;;;;;;;9.20;2.13;;;12.80;88.40;;;;;;5050595;28;20068;-70
2023/07/25 02:58:02;;;;;;;8.50;1.60;;;12.80;88.30;;;;;;5039764;28;20434;-70
2023/07/25 03:00:28;;;;;;;9.83;2.17;;;12.70;88.30;;;;;;5041086;28;20406;-70
2023/07/25 03:02:53;;;;;;;7.57;1.80;;;12.70;88.30;;;;;;5038959;28;20186;-70
2023/07/25 03:05:19;;;;;;;9.10;2.00;;;12.60;88.30;;;;;;5012559;28;20144;-70
2023/07/25 03:07:45;;;;;;;9.30;2.00;;;12.50;88.30;;;;;;5006888;28;20342;-70
2023/07/25 03:10:11;;;;;;;7.63;1.63;;;12.40;88.40;;;;;;5010811;28;20409;-70
2023/07/25 03:12:36;;;;;;;6.90;1.80;;;12.40;88.50;;;;;;4994831;28;20115;-70
2023/07/25 03:15:03;;;;;;;8.17;1.87;;;12.30;88.60;;;;;;5008799;28;20045;-70
2023/07/25 03:17:30;;;;;;;7.53;1.50;;;12.20;88.70;;;;;;5011087;28;20195;-70
2023/07/25 03:19:56;;;;;;;9.43;1.90;;;12.20;88.60;;;;;;5002292;28;20296;-70
2023/07/25 03:22:22;;;;;;;12.07;2.13;;;12.10;88.80;;;;;;5009019;28;20295;-70
2023/07/25 03:24:48;;;;;;;11.13;1.70;;;12.00;88.80;;;;;;5005130;28;20060;-70
2023/07/25 03:27:15;;;;;;;6.87;1.70;;;12.00;89.10;;;;;;5010448;28;20128;-70
2023/07/25 03:29:41;;;;;;;5.80;1.87;;;11.90;89.00;;;;;;5006237;28;20287;-70
2023/07/25 03:32:07;;;;;;;8.77;1.80;;;11.90;89.00;;;;;;5010731;28;20685;-70
2023/07/25 03:34:32;;;;;;;8.60;2.20;;;11.90;89.20;;;;;;5010637;28;20037;-70
2023/07/25 03:36:58;;;;;;;9.30;1.30;;;11.90;89.30;;;;;;5010305;28;20044;-70
2023/07/25 03:39:24;;;;;;;5.10;1.83;;;11.90;89.30;;;;;;5011053;28;20363;-70
2023/07/25 03:41:49;;;;;;;7.43;1.67;;;11.90;89.20;;;;;;5003628;28;20041;-70
2023/07/25 03:44:19;;;;;;;9.27;2.13;;;11.90;89.10;;;;;;5006931;28;20434;-70
2023/07/25 03:46:45;;;;;;;7.67;1.60;;;11.90;89.80;;;;;;5005853;28;20080;-70
2023/07/25 03:49:12;;;;;;;7.80;1.70;;;11.90;89.50;;;;;;5005301;28;20288;-70
2023/07/25 03:51:38;;;;;;;10.63;1.60;;;11.90;89.30;;;;;;5001578;28;20046;-70
2023/07/25 03:54:04;;;;;;;7.67;1.90;;;11.90;89.30;;;;;;5007582;28;20292;-70
2023/07/25 03:56:30;;;;;;;11.37;2.00;;;11.90;89.20;;;;;;5001002;28;20375;-70
2023/07/25 03:58:56;;;;;;;5.63;1.70;;;11.90;89.20;;;;;;4990592;28;20348;-70
2023/07/25 04:01:21;;;;;;;10.53;2.27;;;11.90;89.60;;;;;;5002454;28;20041;-70
2023/07/25 04:03:47;;;;;;;9.90;2.27;;;11.90;89.50;;;;;;5009968;28;20052;-70
2023/07/25 04:06:13;;;;;;;11.77;1.80;;;11.90;89.80;;;;;;5038971;28;20397;-70
2023/07/25 04:08:39;;;;;;;8.63;2.20;;;11.90;89.60;;;;;;5046163;28;20124;-70
2023/07/25 04:11:05;;;;;;;7.80;1.87;;;11.90;89.50;;;;;;5043274;28;21026;-70
2023/07/25 04:13:30;;;;;;;7.70;1.87;;;11.90;89.30;;;;;;5033584;28;20037;-70
2023/07/25 04:15:56;;;;;;;7.50;1.87;;;11.90;89.10;;;;;;5039862;28;20037;-70
2023/07/25 04:18:22;;;;;;;11.53;2.40;;;11.80;89.10;;;;;;5031181;28;20072;-70
2023/07/25 04:20:48;;;;;;;9.03;1.87;;;11.80;89.10;;;;;;5048577;28;20076;-70
2023/07/25 04:23:14;;;;;;;8.77;1.87;;;11.80;89.40;;;;;;5019699;28;20322;-70
2023/07/25 04:25:40;;;;;;;9.27;1.83;;;11.80;89.20;;;;;;5040563;28;20505;-70
2023/07/25 04:28:07;;;;;;;11.03;1.80;;;11.90;89.30;;;;;;5046884;28;20328;-70
2023/07/25 04:30:32;;;;;;;5.80;1.67;;;11.90;89.00;;;;;;5049495;28;20497;-70
2023/07/25 04:32:58;;;;;;;8.43;1.83;;;11.90;88.90;;;;;;5058262;28;20665;-70
2023/07/25 04:35:24;;;;;;;6.73;1.40;;;12.00;88.80;;;;;;5042933;28;20059;-70
2023/07/25 04:37:49;;;;;;;7.30;1.63;;;12.00;88.60;;;;;;5047215;28;20048;-70
2023/07/25 04:40:15;;;;;;;10.57;1.77;;;12.10;88.30;;;;;;5050100;28;20396;-70
2023/07/25 04:42:41;;;;;;;9.00;1.60;;;12.10;88.00;;;;;;5048503;28;20060;-70
2023/07/25 04:45:07;;;;;;;6.20;1.30;;;12.20;87.90;;;;;;5034085;28;20045;-70
2023/07/25 04:47:33;;;;;;;4.23;1.37;;;12.20;87.70;;;;;;5036122;28;20045;-70
2023/07/25 04:49:58;;;;;;;10.47;1.70;;;12.30;87.60;;;;;;5036477;28;20406;-70
2023/07/25 04:52:24;;;;;;;6.07;1.50;;;12.30;87.40;;;;;;5050068;28;20060;-70
2023/07/25 04:54:52;;;;;;;11.37;2.47;;;12.40;87.20;;;;;;5049972;28;20033;-70
2023/07/25 04:57:18;;;;;;;9.10;1.80;;;12.40;86.90;;;;;;5050255;28;20202;-70
2023/07/25 04:59:43;;;;;;;6.07;1.57;;;12.50;87.00;;;;;;5050161;28;20334;-70
2023/07/25 05:02:09;;;;;;;4.97;1.23;;;12.60;86.70;;;;;;5042326;28;20395;-70
2023/07/25 05:04:35;;;;;;;11.47;1.67;;;12.60;86.40;;;;;;5045160;28;20136;-70
2023/07/25 05:07:00;;;;;;;7.10;1.40;;;12.70;86.70;;;;;;5041781;28;20048;-70
2023/07/25 05:09:26;;;;;;;8.70;1.57;;;13.00;87.20;;;;;;5040128;28;20053;-70
2023/07/25 05:11:52;;;;;;;9.47;1.20;;;13.50;85.70;;;;;;5041526;28;20048;-70
2023/07/25 05:14:18;;;;;;;7.03;1.10;;;13.90;85.40;;;;;;5049290;28;20183;-70
2023/07/25 05:16:43;;;;;;;9.33;1.27;;;14.10;83.70;;;;;;5044598;28;20069;-70
2023/07/25 05:19:09;;;;;;;5.47;1.10;;;14.20;84.00;;;;;;5045076;28;20463;-70
2023/07/25 05:21:35;;;;;;;6.77;1.07;;;14.50;81.80;;;;;;5039240;28;20044;-70
2023/07/25 05:24:02;;;;;;;5.00;0.97;;;14.70;81.50;;;;;;5047303;28;20123;-70
2023/07/25 05:26:28;;;;;;;7.63;1.00;;;14.70;82.00;;;;;;5050712;28;20373;-70
2023/07/25 05:28:53;;;;;;;4.00;0.93;;;14.80;82.10;;;;;;5049873;28;20283;-70
2023/07/25 05:31:19;;;;;;;3.60;0.90;;;14.80;81.30;;;;;;5044016;28;20313;-70
2023/07/25 05:33:45;;;;;;;4.73;0.90;;;14.70;80.90;;;;;;5023887;28;20099;-70
2023/07/25 05:36:10;;;;;;;7.60;1.10;;;14.60;81.40;;;;;;5041052;28;20109;-70
2023/07/25 05:38:36;;;;;;;5.27;0.87;;;14.50;80.70;;;;;;5038604;28;20041;-71
2023/07/25 05:41:02;;;;;;;7.43;1.53;;;14.40;80.80;;;;;;5040491;28;20033;-70
2023/07/25 05:43:28;;;;;;;3.20;0.60;;;14.30;81.80;;;;;;5039519;28;20033;-70
2023/07/25 05:45:54;;;;;;;6.87;0.73;;;14.30;82.50;;;;;;5028312;28;20348;-70
2023/07/25 05:48:20;;;;;;;6.33;0.87;;;14.40;82.00;;;;;;5019651;28;20041;-70
2023/07/25 05:50:52;;;;;;;4.13;0.63;;;14.50;81.50;;;;;;5050267;28;20032;-70
2023/07/25 05:53:18;;;;;;;5.50;1.00;;;14.70;81.70;;;;;;5046410;28;20051;-70
2023/07/25 05:55:48;;;;;;;7.53;1.00;;;15.00;79.80;;;;;;5037024;28;20287;-70
2023/07/25 05:58:18;;;;;;;7.03;0.90;;;15.30;78.70;;;;;;5034762;28;20276;-70
2023/07/25 06:00:44;;;;;;;4.43;0.90;;;15.40;78.90;;;;;;5038541;28;20632;-70
2023/07/25 06:03:14;;;;;;;7.40;1.00;;;15.50;79.20;;;;;;5040006;28;20380;-70
2023/07/25 06:05:41;;;;;;;5.37;0.50;;;15.50;78.50;;;;;;5034924;28;20704;-70
2023/07/25 06:08:07;;;;;;;4.57;0.80;;;15.40;77.80;;;;;;5034743;28;20284;-70
2023/07/25 06:10:34;;;;;;;6.07;0.70;;;15.40;77.30;;;;;;5030928;28;20294;-70
2023/07/25 06:13:00;;;;;;;6.13;0.40;;;15.30;77.60;;;;;;5038769;28;20307;-70
2023/07/25 06:15:29;;;;;;;4.73;0.47;;;15.30;77.60;;;;;;5023524;28;20366;-70
2023/07/25 06:17:55;;;;;;;6.10;0.60;;;15.40;77.80;;;;;;5043090;28;20287;-70
2023/07/25 06:20:21;;;;;;;3.50;0.80;;;15.40;77.70;;;;;;5022101;28;20362;-70
2023/07/25 06:22:47;;;;;;;2.47;0.40;;;15.50;77.00;;;;;;5020377;28;20564;-70
2023/07/25 06:25:15;;;;;;;4.03;0.50;;;15.60;77.00;;;;;;5048295;28;20037;-70
2023/07/25 06:27:41;;;;;;;4.77;0.50;;;15.70;76.00;;;;;;5040634;28;20292;-70
2023/07/25 06:30:07;;;;;;;5.40;1.10;;;15.80;74.90;;;;;;5035470;28;20290;-70
2023/07/25 06:32:34;;;;;;;4.50;0.60;;;15.90;74.10;;;;;;5012937;28;20068;-70
2023/07/25 06:35:00;;;;;;;3.10;0.43;;;16.00;74.20;;;;;;5044059;28;20846;-71
2023/07/25 06:37:26;;;;;;;3.77;0.70;;;16.20;73.50;;;;;;5047752;28;20377;-70
2023/07/25 06:39:52;;;;;;;3.73;0.50;;;16.50;74.00;;;;;;5023341;28;20089;-70
2023/07/25 06:42:17;;;;;;;6.53;0.90;;;16.80;72.70;;;;;;5036586;28;20052;-70
2023/07/25 06:44:43;;;;;;;4.60;0.93;;;17.00;71.50;;;;;;5029320;28;20046;-71
2023/07/25 06:47:09;;;;;;;6.80;0.60;;;17.30;69.00;;;;;;5040608;28;20090;-71
2023/07/25 06:49:34;;;;;;;6.40;0.60;;;17.30;66.00;;;;;;5035414;28;20120;-70
2023/07/25 06:52:00;;;;;;;4.77;0.50;;;17.10;67.10;;;;;;5018813;28;20045;-71
2023/07/25 06:54:26;;;;;;;6.00;0.50;;;16.80;67.30;;;;;;5031675;28;20535;-70
2023/07/25 06:56:52;;;;;;;6.00;0.63;;;16.40;68.00;;;;;;5035635;28;20040;-71
2023/07/25 06:59:18;;;;;;;4.07;0.53;;;16.20;69.20;;;;;;5035974;28;20155;-70
2023/07/25 07:01:44;;;;;;;3.40;0.67;;;16.40;69.80;;;;;;5034324;28;20033;-70
2023/07/25 07:04:10;;;;;;;4.03;0.50;;;16.80;68.20;;;;;;5033485;28;20057;-70
2023/07/25 07:06:36;;;;;;;5.07;0.50;;;17.20;66.30;;;;;;5038119;28;20332;-71
2023/07/25 07:09:02;;;;;;;4.53;0.63;;;17.40;65.60;;;;;;5048614;28;20063;-71
2023/07/25 07:11:28;;;;;;;2.40;0.43;;;17.50;64.00;;;;;;5048343;28;20052;-71
2023/07/25 07:13:54;;;;;;;3.17;0.53;;;17.50;62.50;;;;;;5041753;28;20280;-72
2023/07/25 07:16:19;;;;;;;3.73;0.30;;;17.30;64.10;;;;;;5047004;28;20076;-70
2023/07/25 07:18:45;;;;;;;4.17;0.50;;;17.10;64.00;;;;;;5032827;28;20416;-71
2023/07/25 07:21:11;;;;;;;3.40;0.40;;;17.00;64.80;;;;;;5038418;28;20045;-71
2023/07/25 07:23:37;;;;;;;3.23;0.40;;;16.70;63.90;;;;;;5047697;28;20481;-72
2023/07/25 07:26:03;;;;;;;2.30;0.30;;;16.60;65.10;;;;;;5049590;28;20091;-71
2023/07/25 07:28:29;;;;;;;5.57;0.60;;;16.50;65.70;;;;;;5028431;28;20033;-71
2023/07/25 07:30:55;;;;;;;3.50;0.60;;;16.50;65.50;;;;;;5044432;28;20327;-70
2023/07/25 07:33:21;;;;;;;5.40;0.40;;;16.50;65.70;;;;;;5042954;28;20318;-71
2023/07/25 07:35:47;;;;;;;3.47;0.33;;;16.60;65.20;;;;;;5042927;28;20033;-71
2023/07/25 07:38:13;;;;;;;2.90;0.40;;;16.60;64.60;;;;;;5040691;28;20285;-71
2023/07/25 07:40:38;;;;;;;2.40;0.30;;;16.60;65.40;;;;;;5045972;28;20029;-70
2023/07/25 07:43:04;;;;;;;4.00;0.43;;;16.70;64.00;;;;;;5047332;28;20048;-71
2023/07/25 07:45:33;;;;;;;1.87;0.40;;;16.70;63.60;;;;;;5038681;28;20041;-71
2023/07/25 07:48:00;;;;;;;4.53;0.80;;;16.70;64.10;;;;;;5056656;28;20501;-71
2023/07/25 07:50:28;;;;;;;3.00;0.83;;;16.70;63.80;;;;;;5040169;28;20353;-72
2023/07/25 07:52:54;;;;;;;4.70;0.60;;;16.80;64.10;;;;;;5041125;28;20315;-71
2023/07/25 07:55:20;;;;;;;2.90;0.60;;;16.90;64.20;;;;;;5024496;28;20826;-71
2023/07/25 07:57:47;;;;;;;5.30;0.50;;;17.00;63.50;;;;;;5037146;28;20404;-70
2023/07/25 08:00:14;;;;;;;4.37;0.50;;;17.10;62.90;;;;;;5042095;28;20767;-70
2023/07/25 08:02:44;;;;;;;2.60;0.40;;;17.30;60.70;;;;;;5038607;28;20284;-71
2023/07/25 08:05:11;;;;;;;5.17;0.53;;;17.50;61.40;;;;;;5011870;28;20297;-72
2023/07/25 08:07:37;;;;;;;2.17;0.40;;;17.60;60.30;;;;;;5006318;28;20323;-71
2023/07/25 08:10:04;;;;;;;3.83;0.37;;;17.80;59.10;;;;;;5004072;28;20395;-71
2023/07/25 08:12:31;;;;;;;5.23;0.40;;;18.00;60.20;;;;;;5003080;28;20296;-72
2023/07/25 08:14:57;;;;;;;4.50;0.60;;;18.10;59.30;;;;;;4990624;28;20292;-71
2023/07/25 08:17:22;;;;;;;3.73;0.47;;;18.10;58.80;;;;;;4986990;28;20343;-72
2023/07/25 08:19:48;;;;;;;4.23;0.60;;;18.00;59.30;;;;;;5002435;28;20030;-71
2023/07/25 08:22:14;;;;;;;3.20;0.40;;;18.00;59.60;;;;;;5001298;28;20046;-71
2023/07/25 08:24:41;;;;;;;3.60;0.50;;;17.90;58.40;;;;;;5010782;28;20037;-71
2023/07/25 08:27:07;;;;;;;5.67;0.50;;;17.80;58.50;;;;;;5003028;28;20081;-70
2023/07/25 08:29:37;;;;;;;5.47;0.50;;;17.70;59.30;;;;;;5005414;28;20328;-70
2023/07/25 08:32:03;;;;;;;3.83;0.70;;;17.50;60.80;;;;;;4995054;28;20316;-71
2023/07/25 08:34:29;;;;;;;5.40;0.70;;;17.30;61.80;;;;;;4990579;28;20309;-71
2023/07/25 08:36:55;;;;;;;3.67;0.33;;;17.20;61.90;;;;;;5009243;28;20326;-71
2023/07/25 08:39:20;;;;;;;5.23;0.50;;;17.20;62.40;;;;;;5001009;28;20038;-71
2023/07/25 08:41:53;;;;;;;2.80;0.60;;;17.30;61.90;;;;;;5007026;28;20099;-71
2023/07/25 08:44:22;;;;;;;5.10;0.50;;;17.40;61.60;;;;;;5002012;28;20041;-71
2023/07/25 08:46:51;;;;;;;2.30;0.40;;;17.60;62.10;;;;;;5007204;28;20288;-71
2023/07/25 08:49:23;;;;;;;2.53;0.40;;;17.70;62.20;;;;;;5004970;28;20299;-71
2023/07/25 08:51:52;;;;;;;;;;;17.70;60.40;;;;;;5005863;28;20393;-71
2023/07/25 08:54:24;;;;;;;3.27;0.40;;;17.60;58.30;;;;;;5008758;28;19917;-71
2023/07/25 08:56:50;;;;;;;3.33;0.40;;;17.40;59.90;;;;;;5012872;28;20363;-72
2023/07/25 08:59:17;;;;;;;3.43;0.50;;;17.40;60.60;;;;;;4972789;28;20300;-71
2023/07/25 09:01:44;;;;;;;4.53;0.60;;;17.50;60.70;;;;;;5003116;28;20284;-71
2023/07/25 09:04:11;;;;;;;2.57;0.30;;;17.70;60.50;;;;;;5017961;28;20307;-71
2023/07/25 09:06:37;;;;;;;3.23;0.30;;;17.80;59.30;;;;;;5041794;28;20279;-71
2023/07/25 09:09:04;;;;;;;2.70;0.30;;;17.90;57.50;;;;;;5039518;28;20290;-71
2023/07/25 09:11:32;;;;;;;3.93;0.27;;;17.90;57.10;;;;;;5038410;28;20042;-71
2023/07/25 09:13:58;;;;;;;1.47;0.23;;;17.90;58.10;;;;;;5042495;28;20299;-71
2023/07/25 09:16:24;;;;;;;2.77;0.30;;;17.90;56.70;;;;;;5033455;28;20277;-71
2023/07/25 09:18:49;;;;;;;4.37;0.47;;;17.80;58.20;;;;;;5037405;28;20037;-71
2023/07/25 09:21:15;;;;;;;3.13;0.30;;;18.00;58.30;;;;;;5049197;28;20052;-71
2023/07/25 09:23:53;;;;;;;5.10;0.40;;;18.20;57.40;;;;;;5049292;28;20066;-71
2023/07/25 09:26:22;;;;;;;3.90;0.30;;;18.20;56.60;;;;;;5048408;28;20295;-71
2023/07/25 09:28:53;;;;;;;2.43;0.30;;;18.30;57.80;;;;;;5044315;28;20055;-71
2023/07/25 09:31:21;;;;;;;4.07;0.20;;;18.60;58.20;;;;;;5054301;28;20098;-71
2023/07/25 09:33:52;;;;;;;2.87;0.53;;;18.90;56.60;;;;;;5037493;28;20060;-71
2023/07/25 09:36:18;;;;;;;4.97;0.43;;;19.20;56.60;;;;;;5056320;28;20345;-71
2023/07/25 09:38:51;;;;;;;6.83;0.60;;;19.40;55.40;;;;;;5048247;28;20120;-71
2023/07/25 09:41:18;;;;;;;3.10;0.40;;;19.50;56.30;;;;;;5038122;28;20048;-71
2023/07/25 09:43:44;;;;;;;3.30;0.50;;;19.70;54.40;;;;;;5042898;28;20041;-71
2023/07/25 09:46:10;;;;;;;5.17;0.30;;;19.50;54.30;;;;;;5063226;28;20080;-71
2023/07/25 09:48:36;;;;;;;6.93;0.50;;;19.40;54.30;;;;;;5061263;28;20044;-71
2023/07/25 09:51:02;;;;;;;3.70;0.40;;;19.20;54.70;;;;;;5041153;28;20033;-71
2023/07/25 09:53:29;;;;;;;2.77;0.43;;;19.00;56.10;;;;;;5039792;28;20049;-71
2023/07/25 09:55:55;;;;;;;6.00;0.47;;;19.00;57.20;;;;;;5038815;28;20099;-71
2023/07/25 09:58:21;;;;;;;3.60;0.53;;;19.30;56.60;;;;;;5031413;28;20445;-71
2023/07/25 10:00:48;;;;;;;2.30;0.50;;;19.60;55.40;;;;;;5045552;28;20037;-71
2023/07/25 10:03:14;;;;;;;5.83;0.40;;;19.90;54.70;;;;;;5042365;28;20446;-71
2023/07/25 10:05:44;;;;;;;5.47;0.40;;;20.00;54.20;;;;;;5044368;28;20132;-71
2023/07/25 10:08:11;;;;;;;2.97;0.40;;;20.00;54.20;;;;;;5029033;28;20041;-71
2023/07/25 10:10:37;;;;;;;2.67;0.40;;;19.90;52.60;;;;;;5040986;28;20198;-71
2023/07/25 10:13:03;;;;;;;5.47;0.60;;;19.70;54.90;;;;;;5061182;28;20678;-71
2023/07/25 10:15:30;;;;;;;3.37;0.40;;;19.50;55.90;;;;;;5043899;28;20041;-71
2023/07/25 10:18:04;;;;;;;2.90;0.50;;;19.50;57.30;;;;;;5030714;28;20703;-71
2023/07/25 10:20:30;;;;;;;4.27;0.40;;;19.70;56.60;;;;;;5041913;28;20041;-71
2023/07/25 10:23:09;;;;;;;3.50;0.50;;;19.60;54.60;;;;;;5033758;28;20056;-71
2023/07/25 10:25:35;;;;;;;2.50;0.30;;;19.50;55.00;;;;;;5039673;28;20401;-71
2023/07/25 10:28:03;;;;;;;6.43;0.60;;;19.40;55.50;;;;;;5037459;28;20049;-71
2023/07/25 10:30:39;;;;;;;4.10;0.33;;;19.40;55.40;;;;;;5041076;28;20048;-71
2023/07/25 10:33:07;;;;;;;3.23;0.40;;;19.50;55.80;;;;;;5048501;28;20120;-71
2023/07/25 10:35:41;;;;;;;2.13;0.40;;;19.60;55.40;;;;;;5039275;28;20044;-70
2023/07/25 10:38:12;;;;;;;3.20;0.65;;;19.70;55.40;;;;;;5035989;28;20048;-71
2023/07/25 10:40:51;;;;;;;2.00;0.30;;;19.90;55.40;;;;;;5042293;28;20681;-72
2023/07/25 10:43:17;;;;;;;2.03;0.30;;;20.10;53.50;;;;;;5050864;28;20152;-70
2023/07/25 10:45:50;;;;;;;5.17;0.40;;;20.20;54.40;;;;;;5018046;28;20128;-70
2023/07/25 10:48:34;;;;;;;3.10;0.40;;;20.00;53.50;;;;;;5045597;28;20059;-70
2023/07/25 10:51:03;;;;;;;3.73;0.60;;;19.80;53.90;;;;;;5023388;28;20100;-71
2023/07/25 10:53:29;;;;;;;2.97;0.70;;;19.60;55.80;;;;;;5035459;28;20128;-71
2023/07/25 10:56:04;;;;;;;3.47;0.50;;;19.40;55.50;;;;;;5042475;28;20673;-70
2023/07/25 10:58:30;;;;;;;6.93;0.68;;;19.10;56.00;;;;;;5044237;28;20036;-70
2023/07/25 11:00:57;;;;;;;3.87;0.50;;;19.00;57.00;;;;;;5043590;28;20037;-70
2023/07/25 11:03:28;;;;;;;5.13;0.90;;;18.90;57.50;;;;;;5028268;28;20058;-71
2023/07/25 11:06:09;;;;;;;2.90;0.50;;;18.70;58.50;;;;;;5052043;28;20509;-71
2023/07/25 11:08:39;;;;;;;2.47;0.40;;;18.50;59.80;;;;;;5047041;28;20052;-71
2023/07/25 11:11:09;;;;;;;4.10;0.50;;;18.50;59.30;;;;;;5042953;28;20089;-70
2023/07/25 11:13:36;;;;;;;3.93;0.40;;;18.50;58.80;;;;;;5024312;28;20032;-70
2023/07/25 11:16:04;;;;;;;1.83;0.30;;;18.40;58.90;;;;;;5027872;28;20037;-71
2023/07/25 11:18:33;;;;;;;2.50;0.20;;;18.50;58.60;;;;;;5047213;28;20058;-70
2023/07/25 11:21:08;;;;;;;3.63;0.20;;;18.70;57.00;;;;;;5040519;28;20045;-71
2023/07/25 11:23:34;;;;;;;1.37;0.30;;;19.00;54.80;;;;;;5037221;28;20040;-71
2023/07/25 11:26:12;;;;;;;1.90;0.30;;;19.30;54.60;;;;;;5047777;28;20051;-71
2023/07/25 11:28:38;;;;;;;1.00;0.20;;;19.50;52.90;;;;;;5041554;28;20045;-71
2023/07/25 11:31:04;;;;;;;2.93;0.30;;;19.60;53.30;;;;;;5037530;28;20103;-71
2023/07/25 11:33:41;;;;;;;3.07;0.43;;;19.60;54.60;;;;;;5042728;28;20049;-71
2023/07/25 11:36:07;;;;;;;3.03;0.40;;;19.20;57.40;;;;;;5042172;28;20041;-71
2023/07/25 11:38:36;;;;;;;3.43;0.50;;;18.90;60.20;;;;;;5043625;28;20052;-71
2023/07/25 11:41:03;;;;;;;2.90;0.40;;;18.50;63.00;;;;;;5041409;28;20179;-72
2023/07/25 11:43:31;;;;;;;3.93;0.60;;;18.20;64.50;;;;;;5049158;28;20387;-71
2023/07/25 11:45:57;;;;;;;1.63;0.60;;;18.00;66.10;;;;;;5055003;28;20052;-71
2023/07/25 11:48:23;;;;;;;1.30;0.20;;;17.90;68.00;;;;;;5046350;28;20029;-70
2023/07/25 11:50:52;;;;;;;3.53;0.33;;;17.80;68.80;;;;;;5051732;28;20048;-71
2023/07/25 11:53:31;;;;;;;6.10;0.83;;;17.70;68.80;;;;;;5051564;28;20041;-71
2023/07/25 11:55:57;;;;;;;3.37;0.50;;;17.50;70.30;;;;;;5035381;28;20061;-71
2023/07/25 11:58:23;;;;;;;5.30;1.30;;;17.00;72.40;;;;;;5030141;28;20067;-71
2023/07/25 12:00:54;;;;;;;3.30;0.70;;;16.50;73.40;;;;;;5040171;28;20291;-72
2023/07/25 12:03:24;;;;;;;4.80;0.93;;;16.10;76.00;;;;;;5042542;28;20043;-72
2023/07/25 12:05:58;;;;;;;4.47;1.03;;;16.00;77.50;;;;;;5051418;28;20403;-71
2023/07/25 12:08:41;;;;;;;4.20;0.77;;;16.00;78.70;;;;;;5044640;28;20284;-71
2023/07/25 12:11:09;;;;;;;5.17;0.80;;;16.00;78.70;;;;;;5049875;28;20041;-70
2023/07/25 12:13:52;;;;;;;3.27;0.80;;;16.20;78.60;;;;;;5043617;28;20314;-70
2023/07/25 12:16:35;;;;;;;2.30;0.60;;;16.50;77.70;;;;;;5046280;28;20322;-72
2023/07/25 12:19:09;;;;;;;3.43;0.60;;;16.70;77.00;;;;;;5038551;28;20296;-72
2023/07/25 12:21:37;;;;;;;5.25;0.85;;;17.00;75.90;;;;;;5054261;28;20313;-71
2023/07/25 12:24:11;;;;;;;4.80;0.60;;;17.30;75.40;;;;;;5035961;28;20051;-71
2023/07/25 12:26:51;;;;;;;2.53;0.47;;;17.50;74.50;;;;;;5030042;28;20302;-72
2023/07/25 12:29:24;;;;;;;5.93;0.60;;;17.60;71.70;;;;;;5044221;28;20311;-72
2023/07/25 12:31:51;;;;;;;3.90;0.70;;;17.70;71.00;;;;;;5050322;28;20333;-71
2023/07/25 12:34:20;;;;;;;3.60;0.47;;;17.80;70.20;;;;;;5049654;28;20283;-71
2023/07/25 12:36:46;;;;;;;1.70;0.40;;;17.90;69.90;;;;;;5048728;28;20958;-72
2023/07/25 12:39:12;;;;;;;2.57;0.50;;;18.10;69.10;;;;;;5042032;28;20288;-71
2023/07/25 12:41:39;;;;;;;2.90;0.43;;;18.10;65.80;;;;;;5037875;28;20803;-71
2023/07/25 12:44:05;;;;;;;2.87;0.40;;;18.00;66.40;;;;;;5049721;28;20291;-71